createdAt,value
2022-10-09T00:01:15.614Z,51.29
2022-10-09T00:03:45.742Z,50.63
2022-10-09T00:06:16.314Z,50.15
2022-10-09T00:08:44.829Z,50.07
2022-10-09T00:11:15.331Z,50.47
2022-10-09T00:13:43.960Z,50.37
2022-10-09T00:16:15.180Z,50.71
2022-10-09T00:18:44.115Z,50.71
2022-10-09T00:21:21.133Z,50.69
2022-10-09T00:23:49.798Z,50.72
2022-10-09T00:26:18.348Z,50.62
2022-10-09T00:28:47.193Z,50.64
2022-10-09T00:31:17.369Z,50.67
2022-10-09T00:33:46.222Z,50.06
2022-10-09T00:36:16.004Z,50.65
2022-10-09T00:38:44.656Z,50.26
2022-10-09T00:41:15.273Z,50.38
2022-10-09T00:43:47.450Z,50.06
2022-10-09T00:46:27.348Z,50.09
2022-10-09T00:49:02.269Z,49.80
2022-10-09T00:51:30.999Z,50.12
2022-10-09T00:53:59.600Z,50.04
2022-10-09T00:56:28.276Z,49.79
2022-10-09T00:58:57.483Z,49.93
2022-10-09T01:01:27.497Z,49.75
2022-10-09T01:03:56.154Z,49.98
2022-10-09T01:06:36.514Z,50.03
2022-10-09T01:09:07.559Z,49.91
2022-10-09T01:11:40.286Z,50.13
2022-10-09T01:14:15.510Z,49.88
2022-10-09T01:16:48.874Z,49.88
2022-10-09T01:19:28.338Z,50.05
2022-10-09T01:22:04.757Z,50.06
2022-10-09T01:24:36.678Z,49.88
2022-10-09T01:27:11.218Z,49.91
2022-10-09T01:29:43.554Z,49.48
2022-10-09T01:32:12.790Z,49.75
2022-10-09T01:34:41.258Z,49.88
2022-10-09T01:37:11.632Z,49.70
2022-10-09T01:39:40.321Z,49.66
2022-10-09T01:42:10.237Z,49.92
2022-10-09T01:44:38.809Z,49.82
2022-10-09T01:47:07.546Z,49.58
2022-10-09T01:49:45.222Z,49.95
2022-10-09T01:52:22.897Z,49.88
2022-10-09T01:55:04.102Z,49.87
2022-10-09T01:57:41.854Z,50.03
2022-10-09T02:00:12.018Z,49.77
2022-10-09T02:02:41.175Z,49.75
2022-10-09T02:05:10.286Z,49.80
2022-10-09T02:07:38.846Z,49.31
2022-10-09T02:10:09.118Z,49.11
2022-10-09T02:12:41.557Z,49.33
2022-10-09T02:15:11.605Z,49.42
2022-10-09T02:17:46.694Z,48.89
2022-10-09T02:20:20.403Z,49.20
2022-10-09T02:22:49.228Z,49.03
2022-10-09T02:25:18.040Z,48.91
2022-10-09T02:27:48.145Z,48.90
2022-10-09T02:30:17.002Z,49.06
2022-10-09T02:32:45.626Z,49.21
2022-10-09T02:35:14.174Z,48.82
2022-10-09T02:37:42.733Z,48.92
2022-10-09T02:40:12.469Z,49.02
2022-10-09T02:42:41.079Z,48.72
2022-10-09T02:45:12.301Z,48.67
2022-10-09T02:47:40.839Z,48.82
2022-10-09T02:50:10.887Z,48.81
2022-10-09T02:52:39.424Z,48.49
2022-10-09T02:55:08.870Z,48.77
2022-10-09T02:57:37.445Z,48.78
2022-10-09T03:00:07.159Z,48.75
2022-10-09T03:02:37.315Z,48.58
2022-10-09T03:05:06.715Z,48.76
2022-10-09T03:07:35.256Z,48.93
2022-10-09T03:10:03.698Z,48.90
2022-10-09T03:12:32.236Z,48.91
2022-10-09T03:15:00.753Z,48.68
2022-10-09T03:17:29.222Z,48.56
2022-10-09T03:19:59.066Z,48.42
2022-10-09T03:22:27.570Z,48.54
2022-10-09T03:24:56.445Z,48.66
2022-10-09T03:27:25.053Z,48.60
2022-10-09T03:29:53.568Z,48.32
2022-10-09T03:32:22.273Z,48.66
2022-10-09T03:34:50.850Z,48.39
2022-10-09T03:37:20.841Z,48.20
2022-10-09T03:39:49.393Z,48.15
2022-10-09T03:42:17.933Z,48.39
2022-10-09T03:44:46.444Z,48.55
2022-10-09T03:47:15.009Z,48.19
2022-10-09T03:49:43.598Z,48.48
2022-10-09T03:52:12.359Z,48.43
2022-10-09T03:54:42.174Z,48.11
2022-10-09T03:57:10.876Z,48.14
2022-10-09T03:59:39.343Z,47.97
2022-10-09T04:02:07.840Z,48.16
2022-10-09T04:04:36.421Z,48.20
2022-10-09T04:07:05.072Z,47.85
2022-10-09T04:09:33.586Z,48.13
2022-10-09T04:12:04.739Z,48.12
2022-10-09T04:14:33.394Z,48.08
2022-10-09T04:17:01.939Z,47.78
2022-10-09T04:19:30.566Z,47.79
2022-10-09T04:21:58.986Z,48.06
2022-10-09T04:24:27.482Z,47.88
2022-10-09T04:26:56.949Z,47.64
2022-10-09T04:29:26.926Z,47.67
2022-10-09T04:31:55.476Z,47.79
2022-10-09T04:34:24.060Z,47.46
2022-10-09T04:36:52.584Z,47.93
2022-10-09T04:39:21.094Z,47.59
2022-10-09T04:41:49.662Z,47.79
2022-10-09T04:44:18.354Z,47.76
2022-10-09T04:46:48.288Z,47.63
2022-10-09T04:49:16.843Z,47.65
2022-10-09T04:51:45.471Z,47.55
2022-10-09T04:54:14.118Z,47.32
2022-10-09T04:56:42.668Z,47.46
2022-10-09T04:59:11.154Z,47.54
2022-10-09T05:01:39.642Z,47.13
2022-10-09T05:04:09.655Z,47.44
2022-10-09T05:06:38.332Z,47.20
2022-10-09T05:09:06.862Z,47.08
2022-10-09T05:11:39.190Z,47.42
2022-10-09T05:14:10.600Z,47.02
2022-10-09T05:17:08.157Z,47.42
2022-10-09T05:19:29.280Z,47.40
2022-10-09T05:21:57.778Z,47.30
2022-10-09T05:24:26.406Z,46.97
2022-10-09T05:26:55.007Z,47.11
2022-10-09T05:29:23.748Z,47.33
2022-10-09T05:31:52.312Z,47.17
2022-10-09T05:34:21.234Z,47.17
2022-10-09T05:36:51.282Z,46.99
2022-10-09T05:39:19.870Z,47.51
2022-10-09T05:41:48.366Z,46.99
2022-10-09T05:44:17.075Z,46.76
2022-10-09T05:46:45.474Z,46.90
2022-10-09T05:49:13.919Z,47.01
2022-10-09T05:51:43.656Z,47.37
2022-10-09T05:54:15.604Z,47.11
2022-10-09T05:56:44.474Z,47.16
2022-10-09T05:59:15.187Z,46.67
2022-10-09T06:01:46.717Z,47.54
2022-10-09T06:04:16.714Z,47.15
2022-10-09T06:06:47.522Z,47.76
2022-10-09T06:09:18.280Z,47.75
2022-10-09T06:11:46.821Z,47.09
2022-10-09T06:14:15.323Z,47.31
2022-10-09T06:16:45.589Z,47.68
2022-10-09T06:19:15.105Z,46.96
2022-10-09T06:21:43.810Z,46.71
2022-10-09T06:24:15.411Z,47.09
2022-10-09T06:26:45.293Z,46.19
2022-10-09T06:29:14.042Z,46.01
2022-10-09T06:31:42.535Z,45.90
2022-10-09T06:34:11.207Z,46.14
2022-10-09T06:36:39.720Z,46.41
2022-10-09T06:39:08.602Z,45.95
2022-10-09T06:41:37.036Z,46.32
2022-10-09T06:44:11.747Z,46.65
2022-10-09T06:46:43.052Z,45.65
2022-10-09T06:49:12.443Z,45.45
2022-10-09T06:51:40.988Z,45.42
2022-10-09T06:54:13.008Z,45.06
2022-10-09T06:56:41.602Z,45.59
2022-10-09T06:59:11.709Z,45.53
2022-10-09T07:01:40.805Z,45.58
2022-10-09T07:04:12.033Z,45.56
2022-10-09T07:06:42.083Z,45.73
2022-10-09T07:09:12.749Z,45.55
2022-10-09T07:11:43.234Z,45.71
2022-10-09T07:14:15.803Z,45.96
2022-10-09T07:16:45.730Z,45.58
2022-10-09T07:19:14.772Z,45.38
2022-10-09T07:21:46.304Z,45.00
2022-10-09T07:24:15.015Z,45.02
2022-10-09T07:26:44.921Z,44.35
2022-10-09T07:29:15.864Z,44.57
2022-10-09T07:31:44.474Z,44.75
2022-10-09T07:34:13.082Z,45.01
2022-10-09T07:36:41.749Z,44.18
2022-10-09T07:39:10.667Z,44.31
2022-10-09T07:41:39.282Z,43.93
2022-10-09T07:44:08.017Z,44.66
2022-10-09T07:46:38.052Z,44.22
2022-10-09T07:49:06.548Z,43.94
2022-10-09T07:51:35.379Z,44.14
2022-10-09T07:54:04.172Z,44.53
2022-10-09T07:56:34.140Z,44.57
2022-10-09T07:59:04.220Z,44.07
2022-10-09T08:01:33.243Z,44.51
2022-10-09T08:04:03.270Z,43.72
2022-10-09T08:06:31.912Z,43.77
2022-10-09T08:09:01.161Z,43.82
2022-10-09T08:11:30.150Z,44.18
2022-10-09T08:13:58.616Z,44.93
2022-10-09T08:16:27.323Z,44.53
2022-10-09T08:18:59.374Z,44.58
2022-10-09T08:21:29.202Z,44.12
2022-10-09T08:23:58.854Z,44.34
2022-10-09T08:26:28.546Z,44.07
2022-10-09T08:28:58.328Z,44.80
2022-10-09T08:31:27.780Z,45.06
2022-10-09T08:33:56.997Z,44.70
2022-10-09T08:36:25.847Z,44.00
2022-10-09T08:38:55.782Z,44.11
2022-10-09T08:41:42.081Z,44.64
2022-10-09T08:44:20.738Z,44.35
2022-10-09T08:47:04.451Z,44.91
2022-10-09T08:49:39.927Z,45.13
2022-10-09T08:52:28.158Z,44.70
2022-10-09T08:55:00.790Z,44.35
2022-10-09T08:57:32.226Z,44.61
2022-10-09T09:00:00.695Z,45.05
2022-10-09T09:02:42.415Z,45.04
2022-10-09T09:05:20.999Z,43.87
2022-10-09T09:07:55.170Z,43.71
2022-10-09T09:10:33.887Z,43.44
2022-10-09T09:13:07.605Z,43.18
2022-10-09T09:15:44.730Z,44.09
2022-10-09T09:18:30.819Z,44.02
2022-10-09T09:21:01.144Z,43.50
2022-10-09T09:23:30.989Z,43.34
2022-10-09T09:26:00.948Z,43.55
2022-10-09T09:28:31.769Z,43.35
2022-10-09T09:31:02.859Z,43.50
2022-10-09T09:33:38.946Z,43.42
2022-10-09T09:36:11.887Z,43.88
2022-10-09T09:39:02.430Z,44.11
2022-10-09T09:41:30.260Z,44.01
2022-10-09T09:43:59.062Z,44.17
2022-10-09T09:46:30.432Z,43.52
2022-10-09T09:48:58.950Z,43.89
2022-10-09T09:51:30.333Z,43.80
2022-10-09T09:54:00.456Z,43.83
2022-10-09T09:57:06.967Z,44.17
2022-10-09T09:59:33.853Z,43.78
2022-10-09T10:02:12.591Z,45.32
2022-10-09T10:04:51.983Z,44.11
2022-10-09T10:07:34.425Z,43.61
2022-10-09T10:10:08.287Z,43.54
2022-10-09T10:12:42.667Z,43.77
2022-10-09T10:15:22.558Z,43.79
2022-10-09T10:17:57.248Z,43.57
2022-10-09T10:20:25.855Z,43.91
2022-10-09T10:22:55.133Z,43.93
2022-10-09T10:25:26.336Z,43.43
2022-10-09T10:27:59.261Z,44.35
2022-10-09T10:30:27.845Z,44.16
2022-10-09T10:32:59.599Z,44.11
2022-10-09T10:35:29.215Z,44.39
2022-10-09T10:38:05.534Z,43.74
2022-10-09T10:40:36.641Z,43.74
2022-10-09T10:43:29.994Z,43.96
2022-10-09T10:46:03.380Z,43.96
2022-10-09T10:48:39.426Z,45.43
2022-10-09T10:51:51.249Z,44.61
2022-10-09T10:54:32.038Z,44.91
2022-10-09T10:57:08.841Z,45.18
2022-10-09T10:59:42.255Z,44.63
2022-10-09T11:02:42.005Z,46.75
2022-10-09T11:05:42.411Z,45.32
2022-10-09T11:08:22.267Z,45.04
2022-10-09T11:11:03.563Z,45.27
2022-10-09T11:13:35.023Z,46.63
2022-10-09T11:16:17.577Z,44.98
2022-10-09T11:19:00.913Z,45.24
2022-10-09T11:21:50.064Z,44.91
2022-10-09T11:24:45.473Z,45.17
2022-10-09T11:27:17.235Z,44.54
2022-10-09T11:29:48.675Z,45.54
2022-10-09T11:32:21.779Z,46.02
2022-10-09T11:34:54.038Z,45.17
2022-10-09T11:37:24.820Z,44.71
2022-10-09T11:39:54.690Z,45.26
2022-10-09T11:42:24.588Z,45.67
2022-10-09T11:45:02.292Z,45.74
2022-10-09T11:47:36.118Z,44.70
2022-10-09T11:50:18.184Z,45.05
2022-10-09T11:52:52.520Z,45.78
2022-10-09T11:55:23.378Z,45.27
2022-10-09T11:57:52.345Z,45.09
2022-10-09T12:00:31.771Z,45.07
2022-10-09T12:03:03.222Z,44.94
2022-10-09T12:05:40.402Z,45.32
2022-10-09T12:08:16.987Z,44.83
2022-10-09T12:10:51.877Z,44.73
2022-10-09T12:13:42.058Z,45.08
2022-10-09T12:16:12.530Z,45.39
2022-10-09T12:18:46.385Z,44.77
2022-10-09T12:21:23.357Z,44.93
2022-10-09T12:23:52.403Z,45.98
2022-10-09T12:26:22.035Z,44.79
2022-10-09T12:28:52.198Z,44.17
2022-10-09T12:31:23.567Z,44.51
2022-10-09T12:33:56.997Z,44.19
2022-10-09T12:36:27.144Z,44.39
2022-10-09T12:38:56.097Z,45.93
2022-10-09T12:41:27.386Z,45.04
2022-10-09T12:43:57.075Z,45.00
2022-10-09T12:46:30.445Z,44.75
2022-10-09T12:49:00.984Z,44.71
2022-10-09T12:51:31.930Z,44.29
2022-10-09T12:54:00.798Z,44.18
2022-10-09T12:56:32.320Z,44.29
2022-10-09T12:59:00.979Z,44.05
2022-10-09T13:01:29.766Z,43.96
2022-10-09T13:04:00.633Z,44.25
2022-10-09T13:06:33.975Z,43.85
2022-10-09T13:09:04.088Z,43.79
2022-10-09T13:11:34.344Z,43.74
2022-10-09T13:14:03.250Z,43.42
2022-10-09T13:16:41.243Z,43.69
2022-10-09T13:19:24.122Z,43.61
2022-10-09T13:22:09.576Z,43.45
2022-10-09T13:24:38.215Z,43.45
2022-10-09T13:27:06.795Z,43.37
2022-10-09T13:29:35.254Z,43.47
2022-10-09T13:32:03.999Z,43.67
2022-10-09T13:34:33.854Z,43.99
2022-10-09T13:37:02.402Z,43.59
2022-10-09T13:39:31.043Z,43.71
2022-10-09T13:41:59.854Z,43.46
2022-10-09T13:44:28.329Z,43.23
2022-10-09T13:46:56.953Z,43.71
2022-10-09T13:49:25.638Z,43.05
2022-10-09T13:51:55.625Z,43.29
2022-10-09T13:54:24.265Z,43.40
2022-10-09T13:56:52.786Z,44.38
2022-10-09T13:59:21.316Z,44.80
2022-10-09T14:01:50.016Z,45.11
2022-10-09T14:04:18.871Z,44.29
2022-10-09T14:06:47.456Z,44.16
2022-10-09T14:09:17.309Z,43.96
2022-10-09T14:11:45.995Z,44.64
2022-10-09T14:14:14.438Z,44.35
2022-10-09T14:16:42.868Z,44.40
2022-10-09T14:19:11.552Z,44.47
2022-10-09T14:21:40.309Z,44.27
2022-10-09T14:24:08.991Z,44.28
2022-10-09T14:26:38.845Z,44.66
2022-10-09T14:29:07.354Z,44.32
2022-10-09T14:31:35.862Z,44.10
2022-10-09T14:34:04.385Z,44.36
2022-10-09T14:36:32.860Z,44.02
2022-10-09T14:39:02.953Z,43.55
2022-10-09T14:41:35.480Z,43.67
2022-10-09T14:44:07.573Z,43.71
2022-10-09T14:46:37.813Z,43.88
2022-10-09T14:49:08.228Z,43.83
2022-10-09T14:51:38.107Z,43.68
2022-10-09T14:54:07.119Z,43.47
2022-10-09T14:56:36.190Z,43.37
2022-10-09T14:59:06.602Z,43.31
2022-10-09T15:01:35.602Z,43.76
2022-10-09T15:04:04.379Z,43.82
2022-10-09T15:06:33.240Z,43.45
2022-10-09T15:09:05.591Z,43.45
2022-10-09T15:11:34.761Z,43.63
2022-10-09T15:14:03.308Z,43.68
2022-10-09T15:16:33.295Z,43.55
2022-10-09T15:19:01.836Z,43.46
2022-10-09T15:21:31.419Z,43.15
2022-10-09T15:24:00.804Z,42.35
2022-10-09T15:26:32.844Z,42.57
2022-10-09T15:29:03.313Z,41.37
2022-10-09T15:31:34.891Z,42.24
2022-10-09T15:34:03.568Z,42.99
2022-10-09T15:36:34.692Z,43.18
2022-10-09T15:39:05.977Z,43.29
2022-10-09T15:41:40.008Z,43.31
2022-10-09T15:44:18.153Z,43.49
2022-10-09T15:46:48.998Z,42.99
2022-10-09T15:49:17.495Z,43.58
2022-10-09T15:51:46.058Z,43.49
2022-10-09T15:54:15.542Z,43.35
2022-10-09T15:56:44.136Z,43.46
2022-10-09T15:59:13.237Z,43.60
2022-10-09T16:01:41.797Z,43.71
2022-10-09T16:04:12.072Z,43.49
2022-10-09T16:06:41.759Z,43.67
2022-10-09T16:09:10.292Z,43.40
2022-10-09T16:11:38.873Z,43.39
2022-10-09T16:14:07.494Z,42.97
2022-10-09T16:16:35.962Z,43.25
2022-10-09T16:19:05.207Z,43.49
2022-10-09T16:21:35.125Z,43.04
2022-10-09T16:24:03.692Z,43.27
2022-10-09T16:26:32.312Z,43.44
2022-10-09T16:29:01.415Z,43.59
2022-10-09T16:31:31.487Z,43.73
2022-10-09T16:34:00.103Z,43.48
2022-10-09T16:36:28.938Z,43.23
2022-10-09T16:38:59.102Z,43.52
2022-10-09T16:41:27.643Z,43.66
2022-10-09T16:43:57.415Z,43.74
2022-10-09T16:46:28.678Z,43.52
2022-10-09T16:48:58.025Z,43.48
2022-10-09T16:51:27.941Z,43.44
2022-10-09T16:53:59.004Z,43.50
2022-10-09T16:56:28.882Z,43.23
2022-10-09T16:58:59.323Z,43.40
2022-10-09T17:01:28.033Z,43.51
2022-10-09T17:03:57.866Z,43.33
2022-10-09T17:06:26.979Z,43.23
2022-10-09T17:08:58.678Z,43.55
2022-10-09T17:11:28.218Z,43.32
2022-10-09T17:13:57.280Z,43.73
2022-10-09T17:16:27.702Z,43.42
2022-10-09T17:18:56.925Z,43.51
2022-10-09T17:21:27.918Z,43.41
2022-10-09T17:24:02.469Z,43.38
2022-10-09T17:26:31.139Z,43.47
2022-10-09T17:28:59.844Z,43.68
2022-10-09T17:31:29.022Z,43.41
2022-10-09T17:33:58.940Z,43.35
2022-10-09T17:36:29.286Z,43.37
2022-10-09T17:38:57.783Z,43.51
2022-10-09T17:41:28.305Z,43.82
2022-10-09T17:43:58.431Z,43.68
2022-10-09T17:46:28.081Z,43.33
2022-10-09T17:48:57.113Z,43.63
2022-10-09T17:51:27.790Z,43.92
2022-10-09T17:56:33.107Z,43.32
2022-10-09T17:59:01.738Z,44.00
2022-10-09T18:01:30.438Z,44.12
2022-10-09T18:03:59.251Z,44.25
2022-10-09T18:06:28.210Z,44.34
2022-10-09T18:08:58.035Z,44.18
2022-10-09T18:11:27.340Z,44.73
2022-10-09T18:13:57.218Z,44.77
2022-10-09T18:16:35.245Z,44.09
2022-10-09T18:19:07.854Z,44.57
2022-10-09T18:21:36.602Z,44.32
2022-10-09T18:24:05.616Z,44.54
2022-10-09T18:26:34.101Z,44.88
2022-10-09T18:29:04.146Z,44.79
2022-10-09T18:31:32.873Z,44.55
2022-10-09T18:34:01.709Z,44.91
2022-10-09T18:36:33.621Z,44.64
2022-10-09T18:39:04.975Z,45.09
2022-10-09T18:41:33.533Z,45.00
2022-10-09T18:44:03.546Z,44.76
2022-10-09T18:46:35.094Z,44.81
2022-10-09T18:49:03.660Z,44.89
2022-10-09T18:51:32.689Z,44.97
2022-10-09T18:54:02.866Z,45.10
2022-10-09T18:56:32.874Z,44.82
2022-10-09T18:59:04.422Z,45.33
2022-10-09T19:01:33.071Z,45.55
2022-10-09T19:04:01.634Z,46.06
2022-10-09T19:06:30.800Z,45.37
2022-10-09T19:09:00.903Z,45.97
2022-10-09T19:11:29.762Z,45.97
2022-10-09T19:14:00.193Z,45.73
2022-10-09T19:16:30.448Z,45.99
2022-10-09T19:18:59.045Z,45.67
2022-10-09T19:21:27.597Z,45.65
2022-10-09T19:23:56.315Z,45.42
2022-10-09T19:26:24.957Z,45.68
2022-10-09T19:28:53.508Z,45.37
2022-10-09T19:31:22.202Z,45.49
2022-10-09T19:33:52.226Z,45.17
2022-10-09T19:36:20.856Z,45.25
2022-10-09T19:38:49.500Z,44.95
2022-10-09T19:41:18.693Z,44.69
2022-10-09T19:43:47.190Z,45.26
2022-10-09T19:46:18.006Z,45.16
2022-10-09T19:48:46.956Z,44.73
2022-10-09T19:51:19.954Z,45.13
2022-10-09T19:53:48.874Z,45.06
2022-10-09T19:56:18.997Z,45.12
2022-10-09T19:58:48.971Z,45.30
2022-10-09T20:01:19.559Z,45.70
2022-10-09T20:03:48.287Z,45.81
2022-10-09T20:06:18.110Z,45.74
2022-10-09T20:08:46.849Z,45.79
2022-10-09T20:11:15.533Z,45.69
2022-10-09T20:13:44.301Z,45.66
2022-10-09T20:16:14.580Z,45.74
2022-10-09T20:18:43.263Z,45.62
2022-10-09T20:21:12.134Z,45.16
2022-10-09T20:23:43.141Z,45.29
2022-10-09T20:26:13.961Z,45.03
2022-10-09T20:28:42.564Z,45.22
2022-10-09T20:31:14.819Z,45.14
2022-10-09T20:33:43.310Z,44.80
2022-10-09T20:36:19.672Z,44.76
2022-10-09T20:38:49.624Z,44.81
2022-10-09T20:41:18.196Z,44.54
2022-10-09T20:43:46.666Z,44.89
2022-10-09T20:46:15.802Z,44.63
2022-10-09T20:48:44.425Z,44.74
2022-10-09T20:51:12.907Z,44.50
2022-10-09T20:53:41.378Z,44.35
2022-10-09T20:56:14.687Z,44.04
2022-10-09T20:58:43.146Z,44.15
2022-10-09T21:01:12.517Z,44.16
2022-10-09T21:03:41.034Z,44.45
2022-10-09T21:06:11.400Z,44.13
2022-10-09T21:08:39.965Z,43.96
2022-10-09T21:11:10.972Z,44.26
2022-10-09T21:13:39.845Z,43.98
2022-10-09T21:16:09.336Z,43.97
2022-10-09T21:18:37.850Z,43.98
2022-10-09T21:21:07.574Z,43.74
2022-10-09T21:23:36.779Z,43.55
2022-10-09T21:26:05.749Z,43.84
2022-10-09T21:28:35.629Z,43.74
2022-10-09T21:31:09.059Z,43.81
2022-10-09T21:33:37.596Z,43.77
2022-10-09T21:36:10.614Z,43.95
2022-10-09T21:38:39.142Z,44.02
2022-10-09T21:41:07.694Z,43.88
2022-10-09T21:43:37.645Z,43.57
2022-10-09T21:46:06.544Z,43.51
2022-10-09T21:48:35.017Z,43.65
2022-10-09T21:51:03.531Z,43.68
2022-10-09T21:53:32.085Z,43.70
2022-10-09T21:56:00.530Z,43.34
2022-10-09T21:58:29.081Z,43.25
2022-10-09T22:00:59.398Z,43.43
2022-10-09T22:03:27.998Z,43.67
2022-10-09T22:05:56.587Z,43.44
2022-10-09T22:08:25.103Z,43.34
2022-10-09T22:10:53.639Z,43.33
2022-10-09T22:13:22.142Z,43.46
2022-10-09T22:15:51.469Z,43.36
2022-10-09T22:18:21.333Z,43.11
2022-10-09T22:20:51.143Z,43.47
2022-10-09T22:23:20.312Z,43.14
2022-10-09T22:25:57.479Z,43.13
2022-10-09T22:28:26.103Z,43.07
2022-10-09T22:31:05.848Z,43.17
2022-10-09T22:33:36.083Z,43.04
2022-10-09T22:36:09.020Z,42.95
2022-10-09T22:38:37.605Z,42.72
2022-10-09T22:41:08.318Z,42.42
2022-10-09T22:43:36.993Z,42.57
2022-10-09T22:46:09.945Z,42.73
2022-10-09T22:48:40.009Z,42.75
2022-10-09T22:51:10.732Z,42.87
2022-10-09T22:53:39.515Z,42.44
2022-10-09T22:56:08.317Z,42.66
2022-10-09T22:58:36.765Z,42.69
2022-10-09T23:01:06.887Z,42.57
2022-10-09T23:03:35.570Z,42.57
2022-10-09T23:06:10.182Z,42.66
2022-10-09T23:08:39.179Z,42.51
2022-10-09T23:11:07.950Z,42.38
2022-10-09T23:13:36.434Z,42.41
2022-10-09T23:16:06.421Z,42.27
2022-10-09T23:18:35.187Z,42.47
2022-10-09T23:21:04.245Z,42.38
2022-10-09T23:23:34.614Z,42.42
2022-10-09T23:26:05.331Z,42.69
2022-10-09T23:28:34.137Z,42.20
2022-10-09T23:31:03.233Z,42.49
2022-10-09T23:33:31.717Z,42.56
2022-10-09T23:36:00.227Z,42.52
2022-10-09T23:38:28.700Z,42.47
2022-10-09T23:40:59.181Z,42.70
2022-10-09T23:43:27.997Z,42.29
2022-10-09T23:45:56.830Z,42.47
2022-10-09T23:48:25.498Z,42.55
2022-10-09T23:50:54.512Z,42.23
2022-10-09T23:53:23.664Z,42.12
2022-10-09T23:55:52.291Z,42.58
2022-10-09T23:58:22.205Z,42.32
